createdAt,value
2022-10-23T00:01:44.985Z,9.82
2022-10-23T00:04:15.552Z,3.70
2022-10-23T00:06:45.798Z,4.82
2022-10-23T00:09:17.617Z,4.13
2022-10-23T00:11:47.929Z,3.92
2022-10-23T00:14:17.542Z,3.72
2022-10-23T00:16:45.873Z,3.15
2022-10-23T00:19:14.387Z,3.13
2022-10-23T00:21:43.096Z,3.22
2022-10-23T00:24:12.905Z,3.20
2022-10-23T00:26:41.843Z,3.50
2022-10-23T00:29:11.511Z,3.45
2022-10-23T00:31:40.585Z,2.67
2022-10-23T00:34:09.379Z,2.65
2022-10-23T00:36:38.518Z,2.15
2022-10-23T00:39:07.185Z,2.38
2022-10-23T00:41:37.038Z,2.35
2022-10-23T00:44:09.169Z,2.30
2022-10-23T00:46:39.685Z,1.73
2022-10-23T00:49:09.123Z,1.85
2022-10-23T00:51:44.951Z,1.77
2022-10-23T00:54:30.682Z,2.63
2022-10-23T00:57:03.197Z,1.98
2022-10-23T00:59:32.455Z,2.33
2022-10-23T01:02:01.564Z,2.10
2022-10-23T01:04:31.096Z,1.83
2022-10-23T01:07:05.082Z,1.55
2022-10-23T01:09:39.251Z,1.50
2022-10-23T01:12:16.721Z,1.95
2022-10-23T01:14:51.955Z,1.80
2022-10-23T01:17:27.047Z,1.48
2022-10-23T01:20:11.340Z,1.70
2022-10-23T01:23:11.122Z,1.50
2022-10-23T01:26:10.128Z,1.35
2022-10-23T01:28:46.150Z,1.23
2022-10-23T01:31:20.410Z,1.30
2022-10-23T01:33:53.515Z,1.25
2022-10-23T01:36:25.358Z,1.25
2022-10-23T01:38:57.898Z,0.90
2022-10-23T01:41:31.389Z,1.30
2022-10-23T01:44:06.364Z,1.00
2022-10-23T01:46:37.702Z,0.98
2022-10-23T01:49:10.099Z,0.90
2022-10-23T01:51:40.294Z,1.65
2022-10-23T01:54:12.059Z,1.40
2022-10-23T01:56:45.388Z,1.20
2022-10-23T01:59:18.611Z,1.23
2022-10-23T02:01:50.734Z,1.30
2022-10-23T02:04:25.393Z,1.25
2022-10-23T02:06:53.819Z,1.30
2022-10-23T02:09:22.213Z,1.25
2022-10-23T02:11:56.776Z,1.35
2022-10-23T02:14:38.523Z,1.05
2022-10-23T02:17:16.212Z,1.45
2022-10-23T02:19:52.084Z,1.35
2022-10-23T02:22:26.670Z,1.40
2022-10-23T02:24:58.872Z,1.52
2022-10-23T02:27:33.498Z,1.20
2022-10-23T02:30:06.812Z,1.30
2022-10-23T02:32:36.742Z,1.25
2022-10-23T02:35:06.035Z,1.10
2022-10-23T02:37:34.829Z,1.15
2022-10-23T02:40:04.134Z,1.50
2022-10-23T02:42:38.253Z,1.20
2022-10-23T02:45:13.335Z,1.40
2022-10-23T02:47:53.087Z,1.05
2022-10-23T02:50:31.080Z,1.10
2022-10-23T02:53:07.858Z,1.00
2022-10-23T02:55:47.328Z,1.30
2022-10-23T02:58:22.242Z,1.08
2022-10-23T03:00:56.224Z,1.13
2022-10-23T03:03:29.592Z,1.13
2022-10-23T03:05:58.467Z,1.13
2022-10-23T03:08:27.179Z,1.00
2022-10-23T03:10:55.547Z,1.10
2022-10-23T03:13:24.596Z,1.10
2022-10-23T03:15:54.354Z,1.35
2022-10-23T03:18:22.795Z,1.33
2022-10-23T03:20:51.173Z,1.70
2022-10-23T03:23:19.446Z,1.48
2022-10-23T03:25:48.157Z,1.40
2022-10-23T03:28:16.468Z,1.40
2022-10-23T03:30:44.891Z,1.50
2022-10-23T03:33:14.842Z,1.67
2022-10-23T03:35:43.424Z,1.30
2022-10-23T03:38:11.783Z,1.40
2022-10-23T03:40:40.181Z,0.90
2022-10-23T03:43:08.515Z,1.60
2022-10-23T03:45:38.675Z,1.20
2022-10-23T03:48:07.552Z,1.30
2022-10-23T03:50:37.912Z,1.67
2022-10-23T03:53:06.328Z,1.25
2022-10-23T03:55:34.797Z,2.05
2022-10-23T03:58:03.345Z,2.67
2022-10-23T04:00:32.231Z,2.35
2022-10-23T04:03:00.630Z,2.20
2022-10-23T04:05:29.346Z,2.42
2022-10-23T04:07:59.130Z,1.88
2022-10-23T04:10:27.732Z,1.67
2022-10-23T04:12:56.570Z,1.60
2022-10-23T04:15:25.020Z,1.60
2022-10-23T04:17:53.669Z,1.50
2022-10-23T04:20:22.227Z,1.20
2022-10-23T04:22:50.686Z,1.23
2022-10-23T04:25:20.602Z,1.50
2022-10-23T04:27:49.675Z,1.40
2022-10-23T04:30:18.123Z,1.50
2022-10-23T04:32:46.494Z,1.30
2022-10-23T04:35:14.905Z,1.67
2022-10-23T04:37:43.728Z,1.40
2022-10-23T04:40:12.508Z,1.40
2022-10-23T04:42:42.506Z,1.40
2022-10-23T04:45:11.787Z,1.30
2022-10-23T04:47:40.331Z,1.25
2022-10-23T04:50:09.407Z,1.48
2022-10-23T04:52:38.048Z,1.38
2022-10-23T04:55:10.021Z,1.13
2022-10-23T04:57:38.294Z,0.90
2022-10-23T05:00:11.379Z,1.23
2022-10-23T05:02:39.979Z,1.05
2022-10-23T05:05:10.622Z,1.35
2022-10-23T05:07:40.340Z,1.17
2022-10-23T05:10:09.591Z,1.27
2022-10-23T05:12:37.966Z,1.02
2022-10-23T05:15:09.098Z,0.98
2022-10-23T05:17:41.343Z,1.08
2022-10-23T05:20:15.274Z,1.30
2022-10-23T05:25:14.066Z,1.30
2022-10-23T05:27:42.912Z,0.98
2022-10-23T05:30:14.333Z,1.08
2022-10-23T05:32:43.130Z,1.00
2022-10-23T05:35:17.361Z,1.08
2022-10-23T05:37:47.950Z,0.90
2022-10-23T05:40:16.367Z,0.90
2022-10-23T05:42:45.020Z,1.10
2022-10-23T05:45:15.023Z,1.10
2022-10-23T05:47:45.318Z,1.20
2022-10-23T05:50:14.111Z,0.93
2022-10-23T05:52:42.834Z,1.05
2022-10-23T05:55:11.809Z,1.13
2022-10-23T05:57:40.247Z,1.13
2022-10-23T06:00:10.055Z,1.00
2022-10-23T06:02:40.015Z,1.35
2022-10-23T06:05:09.072Z,1.00
2022-10-23T06:07:37.706Z,1.75
2022-10-23T06:10:07.432Z,1.40
2022-10-23T06:12:35.930Z,1.10
2022-10-23T06:15:04.835Z,1.30
2022-10-23T06:17:33.225Z,1.60
2022-10-23T06:20:02.988Z,1.10
2022-10-23T06:22:31.536Z,1.15
2022-10-23T06:24:59.935Z,1.35
2022-10-23T06:27:28.292Z,1.30
2022-10-23T06:29:56.695Z,1.42
2022-10-23T06:32:25.391Z,1.55
2022-10-23T06:34:53.715Z,1.95
2022-10-23T06:37:23.582Z,2.05
2022-10-23T06:39:52.203Z,1.95
2022-10-23T06:42:20.992Z,1.20
2022-10-23T06:44:49.298Z,1.30
2022-10-23T06:49:51.149Z,1.15
2022-10-23T06:52:46.646Z,1.13
2022-10-23T06:55:10.823Z,1.75
2022-10-23T06:57:39.249Z,1.20
2022-10-23T07:00:09.089Z,1.30
2022-10-23T07:02:37.793Z,1.20
2022-10-23T07:05:08.772Z,1.17
2022-10-23T07:07:40.934Z,1.10
2022-10-23T07:10:11.411Z,1.10
2022-10-23T07:12:40.008Z,1.10
2022-10-23T07:15:09.899Z,1.00
2022-10-23T07:17:38.252Z,0.90
2022-10-23T07:20:07.857Z,1.50
2022-10-23T07:22:38.631Z,1.10
2022-10-23T07:25:08.026Z,1.00
2022-10-23T07:27:40.501Z,1.20
2022-10-23T07:30:10.769Z,2.88
2022-10-23T07:32:39.193Z,1.60
2022-10-23T07:35:09.283Z,1.67
2022-10-23T07:37:37.731Z,1.50
2022-10-23T07:40:07.511Z,1.38
2022-10-23T07:42:36.238Z,1.40
2022-10-23T07:45:09.302Z,1.25
2022-10-23T07:47:37.835Z,1.08
2022-10-23T07:50:06.847Z,1.33
2022-10-23T07:52:36.599Z,1.00
2022-10-23T07:55:05.609Z,1.27
2022-10-23T07:57:34.084Z,0.90
2022-10-23T08:00:02.468Z,1.00
2022-10-23T08:02:32.398Z,0.90
2022-10-23T08:05:01.468Z,1.10
2022-10-23T08:07:29.868Z,0.88
2022-10-23T08:09:58.332Z,1.00
2022-10-23T08:12:26.875Z,1.10
2022-10-23T08:14:56.376Z,0.80
2022-10-23T08:17:26.400Z,0.90
2022-10-23T08:19:58.369Z,1.00
2022-10-23T08:22:26.793Z,0.90
2022-10-23T08:24:55.494Z,0.90
2022-10-23T08:27:23.810Z,1.73
2022-10-23T08:29:52.957Z,0.98
2022-10-23T08:32:22.286Z,0.98
2022-10-23T08:34:50.655Z,1.33
2022-10-23T08:37:20.444Z,0.82
2022-10-23T08:39:51.296Z,0.90
2022-10-23T08:42:24.583Z,0.93
2022-10-23T08:45:01.771Z,0.75
2022-10-23T08:47:37.704Z,0.70
2022-10-23T08:50:14.470Z,0.80
2022-10-23T08:52:50.934Z,0.88
2022-10-23T08:55:25.055Z,0.90
2022-10-23T08:58:01.970Z,0.90
2022-10-23T09:00:30.667Z,1.02
2022-10-23T09:03:02.790Z,1.10
2022-10-23T09:05:35.770Z,1.00
2022-10-23T09:08:25.552Z,0.90
2022-10-23T09:11:03.137Z,0.82
2022-10-23T09:14:15.507Z,0.90
2022-10-23T09:16:55.293Z,0.90
2022-10-23T09:19:27.607Z,0.90
2022-10-23T09:21:58.098Z,0.88
2022-10-23T09:24:31.917Z,0.80
2022-10-23T09:27:01.997Z,1.20
2022-10-23T09:29:33.446Z,0.80
2022-10-23T09:32:03.707Z,0.88
2022-10-23T09:34:34.624Z,0.75
2022-10-23T09:37:05.518Z,0.85
2022-10-23T09:39:37.904Z,0.60
2022-10-23T09:42:23.275Z,0.70
2022-10-23T09:44:53.919Z,0.65
2022-10-23T09:47:24.475Z,0.70
2022-10-23T09:49:55.496Z,0.80
2022-10-23T09:52:27.267Z,0.70
2022-10-23T09:54:59.953Z,0.70
2022-10-23T09:57:33.576Z,0.70
2022-10-23T10:02:34.840Z,0.57
2022-10-23T10:05:23.295Z,0.60
2022-10-23T10:07:57.637Z,0.70
2022-10-23T10:10:34.995Z,0.70
2022-10-23T10:13:14.974Z,0.63
2022-10-23T10:15:51.676Z,0.50
2022-10-23T10:18:25.175Z,0.70
2022-10-23T10:21:07.619Z,0.60
2022-10-23T10:23:44.393Z,0.85
2022-10-23T10:29:16.600Z,0.75
2022-10-23T10:31:58.204Z,0.63
2022-10-23T10:34:37.756Z,0.90
2022-10-23T10:37:22.558Z,0.63
2022-10-23T10:39:59.103Z,0.70
2022-10-23T10:42:45.759Z,0.85
2022-10-23T10:45:22.053Z,0.60
2022-10-23T10:48:18.373Z,0.60
2022-10-23T10:50:51.466Z,0.52
2022-10-23T10:53:27.695Z,1.00
2022-10-23T10:55:58.806Z,0.98
2022-10-23T10:58:37.692Z,0.35
2022-10-23T11:01:16.237Z,0.50
2022-10-23T11:03:52.101Z,0.60
2022-10-23T11:06:24.788Z,0.80
2022-10-23T11:08:57.170Z,0.60
2022-10-23T11:11:30.844Z,0.43
2022-10-23T11:14:01.014Z,0.60
2022-10-23T11:16:33.503Z,0.50
2022-10-23T11:19:11.406Z,1.52
2022-10-23T11:21:46.659Z,0.35
2022-10-23T11:24:50.132Z,1.10
2022-10-23T11:27:50.314Z,0.60
2022-10-23T11:30:26.995Z,0.75
2022-10-23T11:33:23.626Z,0.73
2022-10-23T11:36:02.589Z,0.70
2022-10-23T11:38:34.634Z,0.55
2022-10-23T11:41:06.296Z,0.52
2022-10-23T11:43:37.111Z,0.85
2022-10-23T11:46:29.983Z,0.63
2022-10-23T11:48:59.313Z,0.50
2022-10-23T11:51:29.467Z,0.70
2022-10-23T11:54:24.980Z,0.70
2022-10-23T11:56:57.459Z,0.60
2022-10-23T11:59:32.049Z,0.60
2022-10-23T12:02:05.290Z,0.60
2022-10-23T12:04:42.880Z,0.68
2022-10-23T12:07:23.972Z,0.70
2022-10-23T12:09:58.464Z,0.60
2022-10-23T12:12:34.161Z,0.82
2022-10-23T12:15:24.938Z,1.00
2022-10-23T12:17:56.327Z,0.90
2022-10-23T12:20:29.707Z,0.93
2022-10-23T12:23:14.944Z,0.70
2022-10-23T12:25:56.346Z,0.70
2022-10-23T12:28:39.764Z,0.60
2022-10-23T12:31:28.621Z,0.68
2022-10-23T12:34:08.882Z,0.70
2022-10-23T12:36:52.062Z,0.73
2022-10-23T12:39:28.287Z,0.70
2022-10-23T12:41:57.991Z,0.70
2022-10-23T12:44:27.143Z,0.60
2022-10-23T12:46:57.954Z,0.80
2022-10-23T12:49:31.785Z,0.98
2022-10-23T12:52:01.861Z,1.35
2022-10-23T12:54:33.397Z,1.10
2022-10-23T12:57:02.206Z,2.28
2022-10-23T12:59:38.761Z,1.70
2022-10-23T13:02:23.526Z,1.17
2022-10-23T13:04:55.518Z,0.70
2022-10-23T13:07:28.452Z,1.63
2022-10-23T13:09:57.455Z,2.22
2022-10-23T13:12:28.629Z,2.05
2022-10-23T13:15:00.417Z,1.45
2022-10-23T13:17:37.951Z,1.00
2022-10-23T13:20:23.754Z,9.75
2022-10-23T13:23:00.495Z,3.45
2022-10-23T13:25:32.212Z,0.90
2022-10-23T13:28:14.995Z,1.17
2022-10-23T13:30:46.452Z,0.73
2022-10-23T13:33:24.518Z,1.10
2022-10-23T13:36:05.095Z,1.13
2022-10-23T13:38:35.287Z,1.05
2022-10-23T13:41:06.105Z,0.90
2022-10-23T13:43:36.122Z,1.20
2022-10-23T13:46:04.800Z,0.85
2022-10-23T13:48:33.223Z,1.23
2022-10-23T13:51:13.782Z,1.30
2022-10-23T13:53:42.135Z,0.90
2022-10-23T13:56:14.198Z,0.88
2022-10-23T13:58:42.711Z,1.20
2022-10-23T14:01:21.830Z,0.90
2022-10-23T14:03:50.811Z,0.82
2022-10-23T14:06:20.918Z,3.50
2022-10-23T14:08:49.455Z,4.65
2022-10-23T14:11:19.441Z,2.42
2022-10-23T14:13:49.451Z,0.85
2022-10-23T14:16:21.040Z,1.15
2022-10-23T14:18:49.796Z,0.73
2022-10-23T14:21:23.671Z,1.05
2022-10-23T14:23:54.193Z,0.70
2022-10-23T14:26:25.258Z,0.80
2022-10-23T14:28:55.642Z,0.77
2022-10-23T14:31:24.827Z,0.65
2022-10-23T14:33:56.088Z,0.80
2022-10-23T14:36:31.078Z,0.82
2022-10-23T14:39:07.368Z,0.70
2022-10-23T14:41:35.636Z,0.93
2022-10-23T14:44:04.122Z,0.90
2022-10-23T14:46:46.466Z,0.80
2022-10-23T14:49:16.447Z,0.60
2022-10-23T14:51:47.327Z,0.68
2022-10-23T14:54:16.409Z,0.50
2022-10-23T14:56:44.795Z,0.73
2022-10-23T14:59:15.656Z,0.73
2022-10-23T15:01:48.559Z,0.93
2022-10-23T15:04:19.900Z,0.70
2022-10-23T15:06:52.051Z,0.60
2022-10-23T15:09:20.713Z,0.68
2022-10-23T15:11:49.319Z,0.70
2022-10-23T15:14:17.798Z,0.70
2022-10-23T15:16:46.683Z,0.70
2022-10-23T15:19:18.663Z,0.75
2022-10-23T15:21:48.183Z,0.70
2022-10-23T15:24:18.862Z,0.63
2022-10-23T15:26:47.363Z,0.57
2022-10-23T15:29:16.384Z,0.63
2022-10-23T15:31:54.560Z,0.90
2022-10-23T15:34:25.788Z,0.60
2022-10-23T15:36:55.537Z,0.70
2022-10-23T15:39:27.203Z,1.30
2022-10-23T15:41:57.088Z,1.30
2022-10-23T15:44:28.652Z,1.13
2022-10-23T15:46:58.230Z,1.40
2022-10-23T15:49:27.454Z,1.60
2022-10-23T15:51:56.110Z,1.10
2022-10-23T15:54:29.264Z,1.10
2022-10-23T15:57:01.845Z,0.90
2022-10-23T15:59:31.802Z,1.00
2022-10-23T16:02:01.345Z,0.80
2022-10-23T16:04:33.789Z,0.70
2022-10-23T16:07:02.078Z,0.70
2022-10-23T16:09:34.318Z,0.60
2022-10-23T16:12:04.912Z,1.60
2022-10-23T16:14:36.057Z,1.20
2022-10-23T16:17:08.556Z,0.80
2022-10-23T16:19:39.567Z,0.68
2022-10-23T16:22:09.750Z,1.05
2022-10-23T16:24:40.034Z,0.90
2022-10-23T16:27:08.967Z,1.33
2022-10-23T16:29:37.708Z,0.90
2022-10-23T16:32:06.626Z,0.90
2022-10-23T16:34:35.021Z,0.82
2022-10-23T16:37:03.707Z,0.90
2022-10-23T16:39:32.031Z,0.65
2022-10-23T16:42:01.826Z,1.00
2022-10-23T16:44:30.409Z,1.48
2022-10-23T16:46:59.119Z,0.70
2022-10-23T16:49:29.967Z,0.70
2022-10-23T16:52:00.664Z,0.70
2022-10-23T16:54:29.126Z,0.80
2022-10-23T16:56:58.844Z,0.70
2022-10-23T16:59:29.564Z,0.80
2022-10-23T17:01:58.516Z,0.82
2022-10-23T17:04:27.420Z,1.20
2022-10-23T17:06:55.779Z,0.90
2022-10-23T17:09:26.893Z,0.75
2022-10-23T17:11:55.681Z,0.90
2022-10-23T17:14:29.407Z,0.90
2022-10-23T17:19:47.025Z,1.15
2022-10-23T17:22:16.127Z,0.85
2022-10-23T17:24:47.618Z,0.80
2022-10-23T17:27:19.343Z,0.80
2022-10-23T17:29:48.420Z,1.30
2022-10-23T17:32:18.812Z,1.52
2022-10-23T17:34:47.843Z,1.13
2022-10-23T17:37:17.375Z,0.82
2022-10-23T17:39:46.103Z,0.93
2022-10-23T17:42:14.646Z,1.13
2022-10-23T17:44:43.084Z,1.05
2022-10-23T17:47:11.499Z,0.70
2022-10-23T17:49:42.915Z,1.00
2022-10-23T17:52:15.487Z,0.85
2022-10-23T17:54:44.173Z,1.10
2022-10-23T17:57:13.002Z,0.80
2022-10-23T17:59:41.541Z,0.98
2022-10-23T18:02:14.340Z,1.00
2022-10-23T18:04:44.463Z,1.02
2022-10-23T18:07:13.266Z,0.95
2022-10-23T18:09:41.943Z,1.10
2022-10-23T18:12:10.404Z,1.10
2022-10-23T18:14:39.312Z,1.10
2022-10-23T18:17:08.114Z,1.13
2022-10-23T18:19:36.776Z,1.00
2022-10-23T18:22:06.743Z,1.05
2022-10-23T18:24:36.260Z,1.20
2022-10-23T18:27:04.813Z,1.10
2022-10-23T18:29:33.142Z,1.00
2022-10-23T18:32:01.565Z,0.90
2022-10-23T18:34:29.892Z,0.90
2022-10-23T18:36:58.706Z,0.70
2022-10-23T18:39:29.059Z,0.70
2022-10-23T18:41:59.523Z,0.90
2022-10-23T18:44:30.371Z,0.90
2022-10-23T18:47:01.057Z,0.82
2022-10-23T18:49:31.128Z,0.73
2022-10-23T18:52:01.452Z,1.23
2022-10-23T18:54:32.974Z,1.02
2022-10-23T18:57:03.419Z,1.05
2022-10-23T18:59:33.052Z,1.08
2022-10-23T19:02:03.079Z,1.10
2022-10-23T19:04:35.627Z,1.20
2022-10-23T19:07:06.186Z,1.20
2022-10-23T19:09:37.481Z,0.98
2022-10-23T19:12:07.754Z,1.30
2022-10-23T19:14:37.332Z,1.10
2022-10-23T19:17:10.829Z,1.20
2022-10-23T19:19:46.154Z,1.23
2022-10-23T19:22:18.805Z,0.95
2022-10-23T19:24:53.349Z,1.33
2022-10-23T19:27:23.345Z,1.20
2022-10-23T19:29:54.954Z,1.10
2022-10-23T19:32:24.600Z,1.33
2022-10-23T19:34:54.535Z,1.20
2022-10-23T19:37:24.858Z,1.25
2022-10-23T19:39:56.406Z,1.20
2022-10-23T19:42:26.203Z,1.15
2022-10-23T19:44:56.225Z,1.42
2022-10-23T19:47:26.192Z,1.40
2022-10-23T19:49:55.967Z,2.10
2022-10-23T19:52:25.763Z,1.50
2022-10-23T19:54:57.011Z,2.15
2022-10-23T19:57:26.817Z,1.65
2022-10-23T19:59:56.632Z,2.38
2022-10-23T20:02:26.277Z,2.20
2022-10-23T20:04:56.334Z,1.73
2022-10-23T20:07:26.170Z,1.95
2022-10-23T20:09:57.466Z,2.30
2022-10-23T20:12:27.157Z,1.85
2022-10-23T20:14:57.067Z,1.90
2022-10-23T20:17:27.029Z,2.05
2022-10-23T20:19:57.356Z,2.05
2022-10-23T20:22:25.762Z,2.65
2022-10-23T20:24:55.655Z,3.70
2022-10-23T20:27:24.322Z,2.25
2022-10-23T20:29:52.864Z,2.13
2022-10-23T20:32:21.755Z,2.10
2022-10-23T20:34:50.383Z,2.30
2022-10-23T20:37:18.736Z,2.30
2022-10-23T20:39:49.885Z,2.97
2022-10-23T20:42:19.791Z,2.25
2022-10-23T20:44:48.367Z,3.30
2022-10-23T20:47:16.770Z,3.30
2022-10-23T20:49:45.221Z,2.80
2022-10-23T20:52:13.664Z,2.35
2022-10-23T20:54:42.994Z,2.70
2022-10-23T20:57:11.486Z,2.25
2022-10-23T20:59:41.295Z,2.70
2022-10-23T21:02:11.498Z,2.50
2022-10-23T21:04:40.139Z,3.15
2022-10-23T21:07:10.424Z,3.08
2022-10-23T21:09:40.119Z,2.50
2022-10-23T21:12:09.243Z,2.25
2022-10-23T21:14:37.955Z,2.65
2022-10-23T21:17:09.252Z,2.40
2022-10-23T21:19:37.813Z,2.58
2022-10-23T21:22:06.201Z,2.40
2022-10-23T21:24:35.615Z,2.88
2022-10-23T21:27:04.014Z,2.97
2022-10-23T21:29:32.927Z,2.60
2022-10-23T21:32:02.576Z,3.10
2022-10-23T21:34:32.603Z,3.15
2022-10-23T21:37:17.691Z,2.78
2022-10-23T21:39:46.317Z,3.00
2022-10-23T21:42:15.703Z,2.65
2022-10-23T21:44:44.232Z,2.83
2022-10-23T21:47:12.549Z,2.90
2022-10-23T21:49:42.627Z,2.83
2022-10-23T21:52:11.768Z,2.40
2022-10-23T21:54:41.174Z,3.35
2022-10-23T21:57:14.828Z,3.20
2022-10-23T22:02:11.567Z,2.78
2022-10-23T22:04:42.431Z,2.80
2022-10-23T22:07:15.091Z,2.33
2022-10-23T22:09:43.959Z,2.90
2022-10-23T22:12:13.186Z,2.58
2022-10-23T22:14:42.749Z,2.55
2022-10-23T22:17:11.215Z,2.88
2022-10-23T22:19:39.547Z,3.08
2022-10-23T22:22:09.612Z,2.55
2022-10-23T22:24:38.302Z,2.80
2022-10-23T22:27:06.691Z,2.70
2022-10-23T22:29:35.160Z,2.50
2022-10-23T22:32:03.406Z,2.42
2022-10-23T22:34:52.786Z,2.50
2022-10-23T22:37:22.755Z,2.80
2022-10-23T22:39:53.476Z,3.03
2022-10-23T22:42:22.161Z,2.40
2022-10-23T22:44:50.567Z,2.70
2022-10-23T22:47:18.939Z,2.47
2022-10-23T22:49:47.320Z,3.03
2022-10-23T22:52:16.493Z,2.83
2022-10-23T22:54:46.555Z,2.70
2022-10-23T22:57:15.019Z,2.47
2022-10-23T22:59:43.840Z,2.35
2022-10-23T23:02:12.182Z,3.25
2022-10-23T23:04:40.655Z,2.47
2022-10-23T23:07:10.308Z,3.10
2022-10-23T23:09:40.189Z,2.80
2022-10-23T23:12:12.632Z,2.80
2022-10-23T23:14:41.559Z,2.63
2022-10-23T23:17:10.888Z,3.33
2022-10-23T23:19:39.579Z,3.10
2022-10-23T23:22:07.956Z,3.13
2022-10-23T23:24:36.397Z,2.70
2022-10-23T23:27:04.963Z,2.92
2022-10-23T23:29:34.811Z,2.63
2022-10-23T23:32:03.211Z,2.60
2022-10-23T23:34:31.661Z,2.95
2022-10-23T23:36:59.970Z,2.55
2022-10-23T23:39:28.797Z,2.33
2022-10-23T23:41:57.173Z,2.50
2022-10-23T23:44:25.561Z,2.55
2022-10-23T23:46:55.973Z,2.78
2022-10-23T23:49:24.472Z,2.85
2022-10-23T23:51:53.185Z,2.70
2022-10-23T23:54:21.502Z,3.08
2022-10-23T23:56:49.916Z,2.65
2022-10-23T23:59:18.682Z,2.70
